Time;durP1;ratioP1;P1;durP2;ratioP2;P2;SDS_P1;SDS_P2;PMS_P1;PMS_P2;Temp;Humidity;BMP_temperature;BMP_pressure;BME280_temperature;BME280_humidity;BME280_pressure;Samples;Min_cycle;Max_cycle;Signal;HPM_P1;HPM_P2
2020/12/28 09:25:26;;;;;;;6.35;2.25;;;12.10;99.90;;;;;;5102037;27;20396;-29
2020/12/28 09:27:53;;;;;;;6.43;2.05;;;15.60;99.90;;;;;;5084097;28;20274;-34
2020/12/28 09:30:20;;;;;;;7.15;1.83;;;16.10;99.90;;;;;;5083144;28;20073;-24
2020/12/28 09:32:47;;;;;;;6.22;2.47;;;16.50;99.90;;;;;;5087352;28;20024;-36
2020/12/28 09:35:12;;;;;;;7.22;2.15;;;16.80;99.90;;;;;;5088971;28;20020;-32
2020/12/28 09:37:38;;;;;;;9.85;2.03;;;16.90;99.90;;;;;;5080152;28;20034;-35
2020/12/28 09:40:04;;;;;;;6.30;1.92;;;17.10;99.90;;;;;;5080852;28;20028;-30
2020/12/28 09:42:30;;;;;;;4.82;1.83;;;17.10;99.90;;;;;;5081609;28;20102;-30
2020/12/28 09:44:56;;;;;;;7.88;1.70;;;17.10;99.90;;;;;;5092150;28;20477;-31
2020/12/28 09:47:22;;;;;;;6.15;1.70;;;17.10;99.90;;;;;;5078814;28;20032;-32
2020/12/28 10:01:27;;;;;;;13.55;4.32;;;;;;;;;;5125562;27;20387;-84
2020/12/28 10:03:53;;;;;;;16.60;5.50;;;;;;;;;;5105577;28;20016;-85
2020/12/28 10:06:31;;;;;;;13.48;5.97;;;;;;;;;;5102856;28;20028;-85
2020/12/28 10:09:01;;;;;;;14.55;5.78;;;;;;;;;;5107901;28;20066;-85
2020/12/28 10:11:27;;;;;;;13.90;6.82;;;;;;;;;;5106621;28;20027;-85
2020/12/28 10:13:53;;;;;;;12.43;6.43;;;;;;;;;;5111372;28;20022;-85
2020/12/28 10:16:27;;;;;;;17.65;6.70;;;;;;;;;;5103497;28;20024;-85
2020/12/28 10:18:53;;;;;;;22.27;7.93;;;;;;;;;;5112987;27;20032;-88
2020/12/28 10:21:19;;;;;;;22.67;9.25;;;;;;;;;;5112126;27;20560;-87
2020/12/28 10:23:45;;;;;;;31.58;14.60;;;;;;;;;;5106702;28;20020;-86
2020/12/28 10:26:16;;;;;;;27.60;10.93;;;;;;;;;;5105454;28;20024;-88
2020/12/28 10:28:42;;;;;;;36.95;13.68;;;;;;;;;;5106989;28;20077;-87
2020/12/28 10:31:09;;;;;;;31.40;11.23;;;;;;;;;;5097375;28;20042;-89
2020/12/28 10:33:35;;;;;;;25.23;9.88;;;;;;;;;;5104128;28;20112;-88
2020/12/28 10:36:01;;;;;;;24.48;8.02;;;;;;;;;;5100745;28;20031;-88
2020/12/28 10:38:27;;;;;;;14.32;6.20;;;;;;;;;;5104446;28;20123;-87
2020/12/28 10:40:53;;;;;;;21.38;9.00;;;;;;;;;;5108334;28;20034;-87
2020/12/28 10:43:19;;;;;;;20.73;5.95;;;;;;;;;;5107262;28;20111;-88
2020/12/28 10:45:45;;;;;;;14.10;4.05;;;;;;;;;;5100730;28;20051;-87
2020/12/28 10:48:11;;;;;;;19.70;4.22;;;;;;;;;;5111360;28;20024;-88
2020/12/28 10:50:37;;;;;;;10.57;3.90;;;;;;;;;;5106435;28;20040;-88
2020/12/28 10:53:03;;;;;;;10.35;4.45;;;;;;;;;;5108543;28;20028;-88
2020/12/28 10:55:30;;;;;;;7.72;3.53;;;;;;;;;;5104396;28;20028;-87
2020/12/28 10:57:56;;;;;;;11.20;3.47;;;;;;;;;;5102616;28;20032;-86
2020/12/28 11:00:22;;;;;;;16.58;5.32;;;;;;;;;;5114538;27;20049;-88
2020/12/28 11:02:49;;;;;;;18.10;5.30;;;;;;;;;;5104597;28;20091;-87
2020/12/28 11:05:16;;;;;;;13.50;5.20;;;;;;;;;;5112869;28;20020;-88
2020/12/28 11:07:42;;;;;;;13.50;5.25;;;;;;;;;;5138882;22;20504;-94
2020/12/28 11:10:08;;;;;;;14.95;5.28;;;;;;;;;;5046177;28;20134;-91
2020/12/28 11:12:34;;;;;;;16.83;5.25;;;;;;;;;;5053858;28;20102;-91
2020/12/28 11:15:00;;;;;;;27.02;5.78;;;;;;;;;;5034766;28;20041;-91
2020/12/28 11:17:26;;;;;;;18.52;5.50;;;;;;;;;;5050586;28;20410;-90
2020/12/28 11:19:52;;;;;;;21.67;7.22;;;;;;;;;;5035575;28;20378;-90
2020/12/28 11:22:21;;;;;;;16.98;6.32;;;;;;;;;;5036387;28;20025;-90
2020/12/28 11:24:47;;;;;;;18.05;6.72;;;;;;;;;;5037692;28;20494;-89
2020/12/28 11:27:13;;;;;;;19.90;7.35;;;;;;;;;;5048539;28;20029;-90
2020/12/28 11:29:39;;;;;;;26.00;7.43;;;;;;;;;;5047597;28;20059;-90
2020/12/28 11:32:05;;;;;;;19.88;7.63;;;;;;;;;;5054541;28;20048;-90
2020/12/28 11:34:31;;;;;;;16.40;7.28;;;;;;;;;;5055617;28;20029;-90
2020/12/28 11:36:57;;;;;;;20.92;8.52;;;;;;;;;;5053378;28;20023;-90
2020/12/28 11:39:23;;;;;;;19.80;9.02;;;;;;;;;;5055031;28;21453;-90
2020/12/28 11:41:49;;;;;;;20.08;6.95;;;;;;;;;;5033964;28;20033;-90
2020/12/28 11:44:15;;;;;;;19.65;8.23;;;;;;;;;;5048148;28;20014;-90
2020/12/28 11:46:42;;;;;;;17.60;6.20;;;;;;;;;;5048643;28;20051;-90
2020/12/28 11:49:08;;;;;;;15.85;6.47;;;;;;;;;;5055787;28;20026;-91
2020/12/28 11:51:35;;;;;;;15.98;6.93;;;;;;;;;;5057000;28;20024;-90
2020/12/28 11:54:01;;;;;;;20.63;6.13;;;;;;;;;;5036845;28;20010;-89
2020/12/28 11:56:27;;;;;;;18.13;6.88;;;;;;;;;;5071689;28;20025;-90
2020/12/28 11:58:53;;;;;;;22.27;7.70;;;;;;;;;;5077088;28;20047;-89
2020/12/28 12:01:20;;;;;;;20.08;7.38;;;;;;;;;;5059077;28;20033;-90
2020/12/28 12:03:47;;;;;;;20.67;7.75;;;;;;;;;;5075911;28;20036;-89
2020/12/28 12:06:14;;;;;;;20.33;7.95;;;;;;;;;;5069636;28;20013;-88
2020/12/28 12:09:09;;;;;;;23.08;10.15;;;;;;;;;;5066640;28;20079;-87
2020/12/28 12:11:26;;;;;;;21.05;9.23;;;;;;;;;;5069796;28;20039;-86
2020/12/28 12:13:52;;;;;;;20.58;8.60;;;;;;;;;;5077142;28;20028;-86
2020/12/28 12:16:22;;;;;;;14.52;7.25;;;;;;;;;;5068012;28;20045;-87
2020/12/28 12:18:48;;;;;;;23.50;8.65;;;;;;;;;;5057906;28;20064;-87
2020/12/28 12:21:14;;;;;;;19.52;9.20;;;;;;;;;;5054820;28;20045;-86
2020/12/28 12:23:41;;;;;;;22.05;8.63;;;;;;;;;;5069732;28;20029;-86
2020/12/28 12:26:07;;;;;;;25.33;9.80;;;;;;;;;;5050346;28;20107;-86
2020/12/28 12:28:33;;;;;;;25.65;10.25;;;;;;;;;;5072085;23;20040;-87
2020/12/28 12:30:59;;;;;;;21.80;9.75;;;;;;;;;;5070505;28;20028;-87
2020/12/28 12:33:25;;;;;;;20.20;9.13;;;;;;;;;;5065162;28;20034;-88
2020/12/28 12:35:51;;;;;;;21.88;8.18;;;;;;;;;;5069734;28;20092;-88
2020/12/28 12:38:17;;;;;;;13.13;5.72;;;;;;;;;;5072587;28;20032;-89
2020/12/28 12:40:43;;;;;;;17.55;7.60;;;;;;;;;;5060943;28;20032;-88
2020/12/28 12:43:09;;;;;;;17.95;7.28;;;;;;;;;;5073524;28;20080;-89
2020/12/28 12:45:36;;;;;;;12.50;5.78;;;;;;;;;;5072565;28;20028;-88
2020/12/28 12:48:02;;;;;;;19.05;7.78;;;;;;;;;;5069042;28;20020;-88
2020/12/28 12:50:28;;;;;;;15.23;5.45;;;;;;;;;;5069679;28;20037;-88
2020/12/28 12:52:54;;;;;;;12.32;5.75;;;;;;;;;;5072056;28;20025;-88
2020/12/28 12:55:20;;;;;;;12.40;6.05;;;;;;;;;;5070503;28;20500;-89
2020/12/28 12:57:46;;;;;;;17.48;5.68;;;;;;;;;;5068919;28;20051;-90
2020/12/28 13:00:17;;;;;;;17.77;5.28;;;;;;;;;;5073546;28;20032;-88
2020/12/28 13:02:44;;;;;;;14.57;6.03;;;;;;;;;;5074888;28;20029;-88
2020/12/28 13:05:11;;;;;;;14.10;6.35;;;;;;;;;;5070064;28;20020;-88
2020/12/28 13:07:37;;;;;;;112.30;48.65;;;;;;;;;;5065757;28;20025;-88
2020/12/28 13:10:07;;;;;;;147.43;62.78;;;;;;;;;;5072523;28;20478;-88
2020/12/28 13:12:34;;;;;;;56.42;25.65;;;;;;;;;;5072361;28;20174;-89
2020/12/28 13:15:00;;;;;;;21.95;10.00;;;;;;;;;;5073309;28;20033;-89
2020/12/28 13:17:26;;;;;;;13.98;6.88;;;;;;;;;;5073505;28;20028;-89
2020/12/28 13:19:52;;;;;;;13.60;5.97;;;;;;;;;;5073408;28;20509;-88
2020/12/28 13:22:18;;;;;;;13.77;6.15;;;;;;;;;;5072063;28;20082;-88
2020/12/28 13:24:45;;;;;;;16.85;6.93;;;;;;;;;;5072485;28;20021;-88
2020/12/28 13:27:11;;;;;;;16.27;7.00;;;;;;;;;;5069788;28;20016;-89
2020/12/28 13:29:38;;;;;;;21.27;7.38;;;;;;;;;;5067223;28;20536;-88
2020/12/28 13:32:04;;;;;;;15.48;6.75;;;;;;;;;;5072151;28;20033;-87
2020/12/28 13:34:31;;;;;;;20.40;9.18;;;;;;;;;;5071853;28;20086;-88
2020/12/28 13:36:57;;;;;;;20.08;7.47;;;;;;;;;;5067129;28;20078;-88
2020/12/28 13:39:23;;;;;;;17.27;7.15;;;;;;;;;;5074005;28;20111;-87
2020/12/28 13:41:49;;;;;;;17.13;8.00;;;;;;;;;;5069454;28;20017;-88
2020/12/28 13:44:15;;;;;;;19.35;8.02;;;;;;;;;;5069837;28;20032;-88
2020/12/28 13:46:47;;;;;;;20.42;9.15;;;;;;;;;;5071078;28;20082;-88
2020/12/28 13:49:13;;;;;;;16.85;7.55;;;;;;;;;;5064616;28;20037;-86
2020/12/28 13:51:39;;;;;;;19.77;7.95;;;;;;;;;;5065538;28;20471;-88
2020/12/28 13:54:06;;;;;;;16.95;6.22;;;;;;;;;;5069710;28;20017;-87
2020/12/28 13:56:32;;;;;;;26.75;7.50;;;;;;;;;;5069746;28;20082;-87
2020/12/28 13:58:58;;;;;;;18.35;8.48;;;;;;;;;;5071601;28;20024;-86
2020/12/28 14:01:25;;;;;;;20.98;10.02;;;;;;;;;;5077451;28;20020;-88
2020/12/28 14:03:51;;;;;;;22.55;10.02;;;;;;;;;;5071756;28;20845;-88
2020/12/28 14:06:18;;;;;;;23.92;10.82;;;;;;;;;;5068281;28;20044;-88
2020/12/28 14:08:48;;;;;;;23.10;9.82;;;;;;;;;;5086340;28;20036;-88
2020/12/28 14:11:16;;;;;;;22.50;10.35;;;;;;;;;;5068947;28;20112;-88
2020/12/28 14:13:42;;;;;;;23.83;10.43;;;;;;;;;;5068618;28;20025;-88
2020/12/28 14:16:09;;;;;;;17.33;8.57;;;;;;;;;;5069157;28;20090;-87
2020/12/28 14:18:35;;;;;;;23.02;9.95;;;;;;;;;;5071600;28;20029;-88
2020/12/28 14:21:02;;;;;;;20.25;9.02;;;;;;;;;;5065901;28;20041;-87
2020/12/28 14:23:29;;;;;;;27.60;11.13;;;;;;;;;;5068364;28;20029;-87
2020/12/28 14:25:55;;;;;;;23.70;9.68;;;;;;;;;;5068962;28;20032;-87
2020/12/28 14:28:22;;;;;;;21.23;10.32;;;;;;;;;;5068708;28;20063;-87
2020/12/28 14:30:48;;;;;;;20.50;9.27;;;;;;;;;;5066605;28;20033;-87
2020/12/28 14:33:14;;;;;;;20.63;9.63;;;;;;;;;;5069278;28;20482;-87
2020/12/28 14:35:40;;;;;;;20.88;10.55;;;;;;;;;;5064635;28;20413;-87
2020/12/28 14:38:06;;;;;;;18.73;9.32;;;;;;;;;;5067399;28;20024;-87
2020/12/28 14:40:32;;;;;;;18.70;9.05;;;;;;;;;;5068569;28;20562;-87
2020/12/28 14:42:58;;;;;;;20.95;10.48;;;;;;;;;;5067712;28;20158;-87
2020/12/28 14:45:24;;;;;;;19.13;9.18;;;;;;;;;;5068981;28;20032;-88
2020/12/28 14:47:50;;;;;;;22.80;9.02;;;;;;;;;;5071105;28;20070;-88
2020/12/28 14:50:16;;;;;;;24.38;9.50;;;;;;;;;;5071234;28;20032;-87
2020/12/28 14:52:42;;;;;;;18.73;7.57;;;;;;;;;;5093094;28;20100;-88
2020/12/28 14:55:08;;;;;;;16.88;8.50;;;;;;;;;;5070977;28;20438;-89
2020/12/28 14:57:34;;;;;;;15.15;7.50;;;;;;;;;;5061809;28;20036;-84
2020/12/28 15:00:01;;;;;;;15.55;7.50;;;;;;;;;;5061825;28;20029;-84
2020/12/28 15:02:27;;;;;;;14.32;7.18;;;;;;;;;;5067255;28;20024;-83
2020/12/28 15:04:54;;;;;;;16.20;7.13;;;;;;;;;;5065641;28;20033;-90
2020/12/28 15:07:20;;;;;;;13.63;7.57;;;;;;;;;;5080690;28;20020;-91
2020/12/28 15:09:46;;;;;;;15.00;7.32;;;;;;;;;;5065374;28;20058;-91
2020/12/28 15:12:12;;;;;;;19.15;7.68;;;;;;;;;;5069283;28;20036;-90
2020/12/28 15:14:38;;;;;;;12.10;6.72;;;;;;;;;;5066291;28;20501;-91
2020/12/28 15:17:04;;;;;;;14.65;6.55;;;;;;;;;;5070096;28;20028;-90
2020/12/28 15:19:30;;;;;;;12.43;7.25;;;;;;;;;;5082594;28;20258;-91
2020/12/28 15:21:56;;;;;;;22.45;7.20;;;;;;;;;;5070588;28;20144;-92
2020/12/28 15:24:22;;;;;;;16.42;8.80;;;;;;;;;;5070372;28;20538;-88
2020/12/28 15:26:48;;;;;;;18.48;9.27;;;;;;;;;;5070807;28;20027;-89
2020/12/28 15:29:15;;;;;;;20.80;9.10;;;;;;;;;;5069468;28;20067;-91
2020/12/28 15:31:41;;;;;;;18.75;7.97;;;;;;;;;;5066541;28;20025;-91
2020/12/28 15:34:07;;;;;;;29.33;8.98;;;;;;;;;;5071316;28;20059;-90
2020/12/28 15:36:35;;;;;;;13.82;7.35;;;;;;;;;;5074167;28;20016;-91
2020/12/28 15:39:02;;;;;;;12.50;6.63;;;;;;;;;;5077449;28;20023;-91
2020/12/28 15:41:28;;;;;;;14.45;7.03;;;;;;;;;;5079260;28;20020;-91
2020/12/28 15:43:54;;;;;;;12.73;6.95;;;;;;;;;;5076811;28;20024;-90
2020/12/28 15:46:20;;;;;;;14.75;6.90;;;;;;;;;;5079844;28;20031;-90
2020/12/28 15:48:46;;;;;;;16.88;8.57;;;;;;;;;;5078768;28;20024;-91
2020/12/28 15:51:12;;;;;;;16.45;8.32;;;;;;;;;;5082810;28;20028;-91
2020/12/28 15:53:39;;;;;;;14.93;7.20;;;;;;;;;;5085704;28;20589;-91
2020/12/28 15:56:05;;;;;;;18.17;8.77;;;;;;;;;;5066248;28;20016;-91
2020/12/28 15:58:31;;;;;;;15.95;8.55;;;;;;;;;;5079361;28;20119;-91
2020/12/28 16:00:57;;;;;;;14.20;6.97;;;;;;;;;;5079506;28;20185;-89
2020/12/28 16:03:25;;;;;;;14.60;7.50;;;;;;;;;;5072987;28;20045;-89
2020/12/28 16:05:52;;;;;;;16.23;6.93;;;;;;;;;;5083245;28;20251;-89
2020/12/28 16:08:19;;;;;;;15.40;7.38;;;;;;;;;;5073365;28;20021;-89
2020/12/28 16:10:45;;;;;;;16.05;7.63;;;;;;;;;;5079528;28;20766;-89
2020/12/28 16:13:11;;;;;;;15.40;8.10;;;;;;;;;;5074571;28;20398;-89
2020/12/28 16:15:38;;;;;;;19.05;8.18;;;;;;;;;;5075973;28;20036;-89
2020/12/28 16:18:04;;;;;;;16.27;7.70;;;;;;;;;;5074635;28;20086;-88
2020/12/28 16:20:31;;;;;;;15.07;8.35;;;;;;;;;;5081015;28;20020;-88
2020/12/28 16:22:57;;;;;;;16.63;8.70;;;;;;;;;;5081317;28;20063;-88
2020/12/28 16:25:23;;;;;;;15.55;9.35;;;;;;;;;;5077344;28;20024;-88
2020/12/28 16:27:49;;;;;;;18.85;10.32;;;;;;;;;;5075336;28;20119;-88
2020/12/28 16:30:15;;;;;;;19.25;9.25;;;;;;;;;;5085267;28;20059;-88
2020/12/28 16:32:41;;;;;;;16.98;8.32;;;;;;;;;;5085288;28;20040;-89
2020/12/28 16:35:08;;;;;;;17.42;8.30;;;;;;;;;;5078586;28;20512;-89
2020/12/28 16:37:34;;;;;;;16.35;7.43;;;;;;;;;;5075529;28;20028;-89
2020/12/28 16:40:00;;;;;;;15.07;7.03;;;;;;;;;;5074853;28;20036;-86
2020/12/28 16:42:26;;;;;;;17.98;8.20;;;;;;;;;;5073224;28;20024;-89
2020/12/28 16:44:52;;;;;;;23.98;10.65;;;;;;;;;;5069666;28;20699;-88
2020/12/28 16:47:18;;;;;;;23.00;11.63;;;;;;;;;;5074933;28;20025;-88
2020/12/28 16:49:44;;;;;;;18.58;11.15;;;;;;;;;;5074364;28;20063;-88
2020/12/28 16:52:10;;;;;;;17.52;9.82;;;;;;;;;;5083866;28;20039;-88
2020/12/28 16:54:36;;;;;;;19.17;10.23;;;;;;;;;;5073460;28;20034;-88
2020/12/28 16:57:03;;;;;;;30.08;12.05;;;;;;;;;;5070775;28;20270;-88
2020/12/28 16:59:29;;;;;;;23.83;13.60;;;;;;;;;;5071745;28;20024;-88
2020/12/28 17:01:56;;;;;;;23.90;14.10;;;;;;;;;;5070792;28;20029;-87
2020/12/28 17:04:22;;;;;;;43.78;27.85;;;;;;;;;;5069856;28;20040;-88
2020/12/28 17:06:48;;;;;;;24.00;13.70;;;;;;;;;;5066076;28;20029;-88
2020/12/28 17:09:15;;;;;;;24.58;14.73;;;;;;;;;;5067983;28;20028;-88
2020/12/28 17:11:42;;;;;;;22.08;11.45;;;;;;;;;;5065423;28;20083;-88
2020/12/28 17:14:08;;;;;;;21.90;12.52;;;;;;;;;;5071073;28;20044;-88
2020/12/28 17:16:34;;;;;;;25.02;11.80;;;;;;;;;;5066691;28;20107;-88
2020/12/28 17:19:01;;;;;;;21.40;11.35;;;;;;;;;;5068179;28;20080;-87
2020/12/28 17:21:27;;;;;;;20.38;11.07;;;;;;;;;;5070062;28;20047;-87
2020/12/28 17:23:53;;;;;;;26.52;11.15;;;;;;;;;;5066407;28;20029;-87
2020/12/28 17:26:19;;;;;;;24.13;13.00;;;;;;;;;;5060409;28;20029;-87
2020/12/28 17:28:45;;;;;;;25.45;13.70;;;;;;;;;;5072665;28;20045;-88
2020/12/28 17:31:12;;;;;;;20.90;12.02;;;;;;;;;;5082524;28;20033;-88
2020/12/28 17:33:38;;;;;;;21.17;14.63;;;;;;;;;;5062858;28;20025;-87
2020/12/28 17:36:04;;;;;;;21.48;12.68;;;;;;;;;;5068626;28;20086;-88
2020/12/28 17:38:31;;;;;;;25.13;12.00;;;;;;;;;;5080951;28;20139;-86
2020/12/28 17:40:57;;;;;;;26.33;12.45;;;;;;;;;;5066026;28;20445;-86
2020/12/28 17:43:24;;;;;;;20.40;11.32;;;;;;;;;;5068280;28;20027;-87
2020/12/28 17:45:50;;;;;;;24.35;14.13;;;;;;;;;;5065060;28;20013;-87
2020/12/28 17:48:16;;;;;;;24.05;12.63;;;;;;;;;;5065021;28;20473;-86
2020/12/28 17:50:42;;;;;;;24.08;14.77;;;;;;;;;;5068858;28;20059;-88
2020/12/28 17:53:08;;;;;;;25.50;13.85;;;;;;;;;;5068349;28;20090;-88
2020/12/28 17:55:35;;;;;;;25.95;14.75;;;;;;;;;;5069218;28;20029;-88
2020/12/28 17:58:01;;;;;;;29.25;15.00;;;;;;;;;;5066744;28;20530;-88
2020/12/28 18:00:27;;;;;;;28.95;16.52;;;;;;;;;;5069460;28;20391;-89
2020/12/28 18:02:54;;;;;;;29.30;16.17;;;;;;;;;;5069088;28;20523;-89
2020/12/28 18:05:20;;;;;;;29.02;17.05;;;;;;;;;;5070792;28;20023;-89
2020/12/28 18:07:49;;;;;;;23.70;13.88;;;;;;;;;;5066156;28;20029;-89
2020/12/28 18:10:15;;;;;;;25.73;15.45;;;;;;;;;;5070238;28;20021;-90
2020/12/28 18:12:42;;;;;;;26.38;14.68;;;;;;;;;;5066364;28;20055;-89
2020/12/28 18:15:08;;;;;;;22.40;13.50;;;;;;;;;;5073802;28;20075;-90
2020/12/28 18:17:34;;;;;;;29.58;15.80;;;;;;;;;;5074103;28;20457;-88
2020/12/28 18:20:00;;;;;;;24.33;13.75;;;;;;;;;;5078755;28;20075;-90
2020/12/28 18:22:27;;;;;;;28.13;16.10;;;;;;;;;;5079939;28;20042;-91
2020/12/28 18:24:53;;;;;;;24.30;15.18;;;;;;;;;;5080035;28;20024;-90
2020/12/28 18:27:22;;;;;;;28.58;16.88;;;;;;;;;;5080577;28;20067;-90
2020/12/28 18:29:49;;;;;;;34.50;16.13;;;;;;;;;;5085924;28;20064;-90
2020/12/28 18:32:15;;;;;;;25.45;15.73;;;;;;;;;;5077735;28;20035;-90
2020/12/28 18:34:41;;;;;;;27.13;15.82;;;;;;;;;;5085481;28;20039;-90
2020/12/28 18:37:07;;;;;;;27.45;16.00;;;;;;;;;;5075551;28;20132;-90
2020/12/28 18:39:34;;;;;;;29.08;16.27;;;;;;;;;;5077695;28;20044;-90
2020/12/28 18:42:04;;;;;;;24.80;15.00;;;;;;;;;;5076027;28;20094;-90
2020/12/28 18:44:30;;;;;;;28.08;16.10;;;;;;;;;;5076871;28;20024;-90
2020/12/28 18:46:56;;;;;;;27.65;15.10;;;;;;;;;;5072606;28;20043;-90
2020/12/28 18:49:22;;;;;;;27.10;14.90;;;;;;;;;;5078425;28;20024;-90
2020/12/28 18:51:50;;;;;;;25.35;15.45;;;;;;;;;;5078017;28;20032;-90
2020/12/28 18:54:33;;;;;;;23.35;15.73;;;;;;;;;;5077761;28;20064;-89
2020/12/28 18:56:59;;;;;;;23.33;13.98;;;;;;;;;;5086839;28;20020;-90
2020/12/28 18:59:30;;;;;;;21.45;13.65;;;;;;;;;;5078258;28;20020;-90
2020/12/28 19:01:57;;;;;;;23.63;13.85;;;;;;;;;;5079182;28;20032;-87
2020/12/28 19:04:24;;;;;;;25.17;14.02;;;;;;;;;;5076884;28;20024;-88
2020/12/28 19:06:54;;;;;;;25.83;16.48;;;;;;;;;;5073038;28;20460;-86
2020/12/28 19:09:20;;;;;;;27.27;14.35;;;;;;;;;;5078963;28;20029;-88
2020/12/28 19:11:53;;;;;;;38.55;20.52;;;;;;;;;;5080584;28;20029;-88
2020/12/28 19:14:21;;;;;;;29.15;16.80;;;;;;;;;;5075957;28;20081;-88
2020/12/28 19:16:47;;;;;;;31.92;18.55;;;;;;;;;;5072999;28;20033;-88
2020/12/28 19:19:13;;;;;;;32.60;18.20;;;;;;;;;;5078948;28;20032;-89
2020/12/28 19:21:39;;;;;;;32.50;18.10;;;;;;;;;;5073909;28;20047;-88
2020/12/28 19:24:05;;;;;;;30.83;18.50;;;;;;;;;;5068558;28;20418;-89
2020/12/28 19:26:31;;;;;;;30.67;20.67;;;;;;;;;;5069622;28;20032;-89
2020/12/28 19:28:57;;;;;;;34.22;20.05;;;;;;;;;;5069086;28;20419;-89
2020/12/28 19:31:23;;;;;;;28.08;18.20;;;;;;;;;;5072435;28;20417;-88
2020/12/28 19:33:49;;;;;;;31.38;18.75;;;;;;;;;;5086169;28;20512;-88
2020/12/28 19:36:17;;;;;;;32.70;21.48;;;;;;;;;;5075413;28;20020;-87
2020/12/28 19:38:43;;;;;;;33.42;21.48;;;;;;;;;;5071434;28;20036;-88
2020/12/28 19:41:12;;;;;;;35.15;20.58;;;;;;;;;;5074131;28;20035;-88
2020/12/28 19:43:38;;;;;;;34.88;21.15;;;;;;;;;;5070171;28;20052;-88
2020/12/28 19:46:04;;;;;;;33.72;21.75;;;;;;;;;;5070789;28;20563;-85
2020/12/28 19:48:30;;;;;;;57.35;38.80;;;;;;;;;;5070767;28;20028;-86
2020/12/28 19:50:56;;;;;;;42.85;24.73;;;;;;;;;;5080776;28;20029;-85
2020/12/28 19:53:22;;;;;;;32.17;20.60;;;;;;;;;;5080951;28;20039;-85
2020/12/28 19:55:48;;;;;;;35.75;22.73;;;;;;;;;;5076024;28;20024;-86
2020/12/28 19:58:16;;;;;;;36.47;20.70;;;;;;;;;;5082626;28;20028;-86
2020/12/28 20:00:42;;;;;;;34.03;20.33;;;;;;;;;;5071732;28;20061;-85
2020/12/28 20:03:08;;;;;;;34.65;21.50;;;;;;;;;;5072050;28;20028;-85
2020/12/28 20:05:34;;;;;;;37.33;22.27;;;;;;;;;;5071465;28;20055;-85
2020/12/28 20:08:00;;;;;;;33.38;19.65;;;;;;;;;;5075695;28;20023;-85
2020/12/28 20:10:26;;;;;;;33.67;20.77;;;;;;;;;;5071263;28;20024;-85
2020/12/28 20:12:52;;;;;;;34.80;19.95;;;;;;;;;;5067879;28;20020;-85
2020/12/28 20:15:18;;;;;;;31.67;19.30;;;;;;;;;;5068301;28;20063;-84
2020/12/28 20:17:44;;;;;;;31.33;19.40;;;;;;;;;;5067862;28;20025;-85
2020/12/28 20:20:10;;;;;;;32.63;20.80;;;;;;;;;;5071267;28;20033;-83
2020/12/28 20:22:39;;;;;;;30.95;19.95;;;;;;;;;;5071438;28;20038;-85
2020/12/28 20:25:06;;;;;;;31.27;21.33;;;;;;;;;;5086697;28;20039;-88
2020/12/28 20:27:38;;;;;;;34.88;19.98;;;;;;;;;;5075833;28;20544;-92
2020/12/28 20:30:14;;;;;;;32.97;21.02;;;;;;;;;;5071711;28;20082;-90
2020/12/28 20:32:41;;;;;;;33.08;19.83;;;;;;;;;;5074052;28;20391;-90
2020/12/28 20:35:08;;;;;;;32.75;21.55;;;;;;;;;;5076174;28;20528;-88
2020/12/28 20:37:34;;;;;;;32.33;19.83;;;;;;;;;;5077765;28;20027;-89
2020/12/28 20:40:03;;;;;;;36.22;21.23;;;;;;;;;;5075535;28;20142;-89
2020/12/28 20:42:30;;;;;;;29.83;20.00;;;;;;;;;;5078963;28;20030;-89
2020/12/28 20:44:56;;;;;;;32.95;21.58;;;;;;;;;;5080315;28;20020;-88
2020/12/28 20:47:22;;;;;;;32.80;21.95;;;;;;;;;;5078462;28;20089;-89
2020/12/28 20:49:48;;;;;;;35.55;22.77;;;;;;;;;;5080485;28;20041;-88
2020/12/28 20:52:14;;;;;;;36.97;23.73;;;;;;;;;;5079577;28;20074;-88
2020/12/28 20:54:40;;;;;;;36.15;22.42;;;;;;;;;;5071362;28;20027;-88
2020/12/28 20:57:06;;;;;;;35.75;23.27;;;;;;;;;;5069607;28;20032;-91
2020/12/28 20:59:32;;;;;;;34.00;21.98;;;;;;;;;;5073025;28;20024;-86
2020/12/28 21:01:58;;;;;;;32.58;20.27;;;;;;;;;;5067529;28;20029;-87
2020/12/28 21:04:24;;;;;;;34.13;20.20;;;;;;;;;;5065281;28;20032;-88
2020/12/28 21:06:50;;;;;;;32.28;19.67;;;;;;;;;;5058380;28;20111;-87
2020/12/28 21:09:16;;;;;;;31.52;19.63;;;;;;;;;;5071535;28;20016;-88
2020/12/28 21:11:42;;;;;;;31.63;20.15;;;;;;;;;;5070470;28;20036;-90
2020/12/28 21:14:10;;;;;;;28.35;18.85;;;;;;;;;;5071591;28;20020;-89
2020/12/28 21:16:36;;;;;;;30.55;19.38;;;;;;;;;;5066177;28;20512;-89
2020/12/28 21:19:02;;;;;;;37.90;22.35;;;;;;;;;;5069496;28;20021;-91
2020/12/28 21:21:28;;;;;;;47.35;26.67;;;;;;;;;;5069400;28;20075;-89
2020/12/28 21:23:54;;;;;;;41.47;25.80;;;;;;;;;;5066848;28;20039;-88
2020/12/28 21:26:20;;;;;;;48.92;28.02;;;;;;;;;;5065984;28;20028;-89
2020/12/28 21:28:46;;;;;;;40.67;25.10;;;;;;;;;;5067014;28;20375;-88
2020/12/28 21:31:16;;;;;;;35.47;22.00;;;;;;;;;;5065751;28;20024;-90
2020/12/28 21:33:42;;;;;;;35.03;22.15;;;;;;;;;;5063083;28;20032;-90
2020/12/28 21:36:08;;;;;;;34.08;20.88;;;;;;;;;;5061627;28;20013;-92
2020/12/28 21:38:34;;;;;;;30.67;20.02;;;;;;;;;;5069654;28;20021;-89
2020/12/28 21:41:00;;;;;;;31.42;19.35;;;;;;;;;;5070515;28;20029;-88
2020/12/28 21:43:27;;;;;;;36.17;21.00;;;;;;;;;;5071034;28;20021;-88
2020/12/28 21:45:54;;;;;;;28.95;19.55;;;;;;;;;;5068345;28;20035;-89
2020/12/28 21:48:20;;;;;;;29.17;18.45;;;;;;;;;;5069261;28;20052;-95
2020/12/28 21:50:46;;;;;;;32.50;20.00;;;;;;;;;;5061766;28;20035;-89
2020/12/28 21:53:14;;;;;;;27.88;18.58;;;;;;;;;;5066916;28;20059;-87
2020/12/28 21:55:40;;;;;;;30.67;18.60;;;;;;;;;;5064996;28;20016;-87
2020/12/28 21:58:06;;;;;;;30.30;18.90;;;;;;;;;;5066258;28;20035;-86
2020/12/28 22:00:32;;;;;;;28.38;17.60;;;;;;;;;;5067703;28;20036;-86
2020/12/28 22:02:58;;;;;;;33.10;19.50;;;;;;;;;;5061939;28;20025;-87
2020/12/28 22:05:24;;;;;;;30.70;18.98;;;;;;;;;;5086499;28;20563;-86
2020/12/28 22:07:50;;;;;;;28.08;18.73;;;;;;;;;;5062664;28;20024;-87
2020/12/28 22:10:16;;;;;;;29.38;19.60;;;;;;;;;;5061159;28;20502;-87
2020/12/28 22:12:52;;;;;;;31.77;18.70;;;;;;;;;;5062107;28;20111;-87
2020/12/28 22:15:19;;;;;;;31.83;18.95;;;;;;;;;;5063736;28;20077;-86
2020/12/28 22:17:45;;;;;;;30.73;19.33;;;;;;;;;;5064705;28;20386;-87
2020/12/28 22:20:11;;;;;;;31.83;18.65;;;;;;;;;;5066683;28;20016;-86
2020/12/28 22:22:37;;;;;;;33.97;19.98;;;;;;;;;;5070265;28;20020;-86
2020/12/28 22:25:03;;;;;;;33.08;19.83;;;;;;;;;;5068692;28;20035;-86
2020/12/28 22:27:30;;;;;;;26.83;18.40;;;;;;;;;;5062774;28;20486;-86
2020/12/28 22:29:56;;;;;;;25.13;16.60;;;;;;;;;;5061429;28;20048;-86
2020/12/28 22:32:22;;;;;;;28.92;19.23;;;;;;;;;;5067830;28;20032;-86
2020/12/28 22:34:48;;;;;;;28.50;17.58;;;;;;;;;;5064896;28;20032;-87
2020/12/28 22:37:14;;;;;;;28.23;17.73;;;;;;;;;;5063745;28;20036;-87
2020/12/28 22:39:40;;;;;;;34.65;18.45;;;;;;;;;;5066100;28;20027;-86
2020/12/28 22:42:06;;;;;;;27.35;17.85;;;;;;;;;;5082314;28;20017;-86
2020/12/28 22:44:33;;;;;;;29.35;17.08;;;;;;;;;;5069509;28;20112;-87
2020/12/28 22:46:59;;;;;;;30.33;18.63;;;;;;;;;;5067505;28;20028;-87
2020/12/28 22:49:25;;;;;;;32.58;18.15;;;;;;;;;;5069770;28;20056;-87
2020/12/28 22:51:51;;;;;;;30.55;18.60;;;;;;;;;;5069268;28;20052;-88
2020/12/28 22:54:17;;;;;;;35.90;19.27;;;;;;;;;;5066769;28;20070;-87
2020/12/28 22:56:46;;;;;;;31.27;19.98;;;;;;;;;;5066842;28;20031;-92
2020/12/28 22:59:13;;;;;;;34.70;19.67;;;;;;;;;;5064131;28;20046;-91
2020/12/28 23:01:39;;;;;;;33.63;21.55;;;;;;;;;;5065786;28;20036;-93
2020/12/28 23:04:05;;;;;;;31.25;19.27;;;;;;;;;;5060904;28;20021;-91
2020/12/28 23:06:32;;;;;;;31.77;19.95;;;;;;;;;;5068780;28;20025;-92
2020/12/28 23:09:03;;;;;;;30.48;18.05;;;;;;;;;;5070645;28;20085;-91
2020/12/28 23:11:29;;;;;;;27.90;18.97;;;;;;;;;;5087270;28;20029;-93
2020/12/28 23:13:55;;;;;;;32.55;21.55;;;;;;;;;;5070693;28;20039;-94
2020/12/28 23:16:22;;;;;;;34.08;19.83;;;;;;;;;;5069808;28;20036;-95
2020/12/28 23:18:49;;;;;;;35.28;21.17;;;;;;;;;;5069784;28;20593;-94
2020/12/28 23:21:15;;;;;;;39.13;22.23;;;;;;;;;;5072420;28;20033;-93
2020/12/28 23:23:41;;;;;;;34.35;20.45;;;;;;;;;;5071998;28;20035;-92
2020/12/28 23:26:14;;;;;;;32.80;21.42;;;;;;;;;;5073151;28;20501;-93
2020/12/28 23:28:41;;;;;;;35.13;20.90;;;;;;;;;;5071739;28;20041;-94
2020/12/28 23:31:10;;;;;;;37.88;22.65;;;;;;;;;;5070391;28;20090;-91
2020/12/28 23:33:37;;;;;;;36.88;23.85;;;;;;;;;;5070402;28;20016;-92
2020/12/28 23:36:04;;;;;;;39.40;24.20;;;;;;;;;;5073454;28;20037;-92
2020/12/28 23:38:30;;;;;;;42.22;24.98;;;;;;;;;;5074844;28;20052;-92
2020/12/28 23:40:56;;;;;;;47.40;25.17;;;;;;;;;;5074296;28;20050;-94
2020/12/28 23:43:22;;;;;;;35.67;21.77;;;;;;;;;;5070089;28;20036;-94
2020/12/28 23:45:50;;;;;;;39.63;23.52;;;;;;;;;;5071461;28;20489;-94
2020/12/28 23:48:17;;;;;;;37.78;22.92;;;;;;;;;;5071999;28;20032;-94
2020/12/28 23:50:43;;;;;;;39.33;22.75;;;;;;;;;;5073615;28;20044;-92